This is the latest recevied weather packets stored in our database for station/object WX9EMS. If no packets are shown the sender has not sent any weather packets the latest 10 day(s).
| Time | Temp. | Humidity | Pressure | Rain* | Wind** | Luminosity | Snow |
|---|---|---|---|---|---|---|---|
| 1777979129 | 7.78° C | 62% | 1008.7 hPa | 0 mm | - | - | - |
| 1777978247 | 7.78° C | 63% | 1009 hPa | 0 mm | - | - | - |
| 1777977123 | - | - | - | 0 mm | - | - | - |
| 1777976428 | 7.78° C | 68% | 1008.3 hPa | 0 mm | - | - | - |
| 1777975828 | 7.78° C | 67% | 1008 hPa | 0 mm | - | - | - |
| 1777975228 | 7.78° C | 66% | 1008.1 hPa | 0 mm | - | - | - |
| 1777974628 | 8.33° C | 65% | 1007.8 hPa | 0 mm | - | - | - |
| 1777974028 | 8.33° C | 65% | 1007.4 hPa | 0 mm | - | - | - |
| 1777971027 | 8.33° C | 63% | 1007.3 hPa | 0 mm | - | - | - |
| 1777969227 | 9.44° C | 65% | 1006.4 hPa | 0 mm | - | - | - |
| 1777968627 | 9.44° C | 64% | 1006.3 hPa | 0 mm | - | - | - |
| 1777968027 | 10° C | 63% | 1005.9 hPa | 0 mm | - | - | - |
| 1777967447 | 10° C | 61% | 1005.9 hPa | 0 mm | - | - | - |
| 1777965626 | 10.56° C | 60% | 1005.3 hPa | 0 mm | - | - | - |
| 1777964426 | 11.11° C | 60% | 1005.1 hPa | 0 mm | - | - | - |
| 1777962025 | 12.78° C | 57% | 1004.3 hPa | 0 mm | - | - | - |
| 1777961425 | 12.78° C | 56% | 1004.3 hPa | 0 mm | - | - | - |
| 1777959625 | 13.89° C | 53% | 1004 hPa | 0 mm | - | - | - |
| 1777956324 | 15° C | 48% | 1003.2 hPa | 0 mm | - | - | - |
| 1777953923 | 15.56° C | 45% | 1002.9 hPa | 0 mm | - | - | - |
| 1777952122 | 16.11° C | 47% | 1002.5 hPa | 0 mm | - | - | - |
| 1777951541 | 16.67° C | 49% | 1002.4 hPa | 0 mm | - | - | - |
| 1777950341 | 16.67° C | 52% | 1002.1 hPa | 0 mm | - | - | - |
| 1777949142 | 17.78° C | 49% | 1002 hPa | 0 mm | - | - | - |
| 1777948521 | 18.89° C | 47% | 1001.8 hPa | 0 mm | - | - | - |
* Rain latest hour (hover to see other rain measurements)
** Current wind speed in m/s (hover to see current wind gust speed)